CheckWX is a tool to help pilots better visualize weather data.  It is not intended as a substitute for an official pre-flight weather briefing.

05:25:06 UTC

KMTH TAF
The Florida Keys Marathon International Airport
Marathon, Florida, USA
KMTH 180151Z 1802/1824 19011G20KT P6SM VCTS FEW015 SCT025CB FM180300 19011KT P6SM VCSH FEW015 SCT025 FM180600 15010KT P6SM VCSH SCT025 SCT050 BKN100

Jun-18@
02:00 UTC

Jun-18 @ 02:00 UTC

Jun-18@
03:00 UTC

Jun-18 @ 03:00 UTC

KMTH 180151Z 1802/1824 19011G20KT P6SM VCTS FEW015 SCT025CB

Expired

Wind
  • 190° at 11 KTS
  • {Gusting to 20 KTS
Conditions
Area Thunderstorm
Cloud Levels
  • Few at 1,500' AGL
  • Scattered at 2,500' AGL

Jun-18@
03:00 UTC

Jun-18 @ 03:00 UTC

Jun-18@
06:00 UTC

Jun-18 @ 06:00 UTC

FM180300 19011KT P6SM VCSH FEW015 SCT025

From

From Standard forecast or significant change

Wind
  • 190° at 11 KTS
Cloud Levels
  • Few at 1,500' AGL
  • Scattered at 2,500' AGL

Jun-18@
06:00 UTC

Jun-18 @ 06:00 UTC

Jun-19@
00:00 UTC

Jun-19 @ 00:00 UTC

FM180600 15010KT P6SM VCSH SCT025 SCT050 BKN100

From

From Standard forecast or significant change

Wind
  • 150° at 10 KTS
Cloud Levels
  • Scattered at 2,500' AGL
  • Scattered at 5,000' AGL
  • Broken at 10,000' AGL